Time;durP1;ratioP1;P1;durP2;ratioP2;P2;SDS_P1;SDS_P2;PMS_P1;PMS_P2;Temp;Humidity;BMP_temperature;BMP_pressure;BME280_temperature;BME280_humidity;BME280_pressure;Samples;Min_cycle;Max_cycle;Signal;HPM_P1;HPM_P2
2021/05/13 00:00:46;;;;;;;8.82;4.25;;;15.00;99.90;;;;;;4954520;29;20023;-76
2021/05/13 00:03:12;;;;;;;12.68;4.88;;;14.80;99.90;;;;;;4954409;29;20058;-73
2021/05/13 00:05:38;;;;;;;11.93;4.95;;;14.20;99.90;;;;;;4954700;29;20023;-77
2021/05/13 00:08:05;;;;;;;10.80;4.93;;;13.70;99.90;;;;;;4950364;28;20059;-78
2021/05/13 00:10:31;;;;;;;9.73;4.95;;;13.50;99.90;;;;;;4954357;29;20082;-79
2021/05/13 00:13:01;;;;;;;12.70;5.63;;;13.40;99.90;;;;;;4954047;29;20039;-77
2021/05/13 00:15:33;;;;;;;7.50;5.18;;;13.80;99.90;;;;;;4937135;29;20073;-74
2021/05/13 00:17:59;;;;;;;7.45;4.57;;;14.10;99.90;;;;;;4936703;29;20031;-73
2021/05/13 00:20:28;;;;;;;13.10;4.82;;;14.10;99.90;;;;;;4954291;29;20042;-76
2021/05/13 00:22:54;;;;;;;10.63;4.45;;;14.10;99.90;;;;;;4953718;29;20115;-81
2021/05/13 00:25:20;;;;;;;11.70;4.85;;;14.20;99.90;;;;;;4954242;29;20106;-80
2021/05/13 00:27:47;;;;;;;12.88;4.75;;;14.40;99.90;;;;;;4953585;29;20485;-77
2021/05/13 00:30:16;;;;;;;7.47;4.22;;;14.60;99.90;;;;;;4954172;29;20065;-77
2021/05/13 00:32:42;;;;;;;13.80;5.05;;;13.90;99.90;;;;;;4962596;28;20045;-75
2021/05/13 00:35:13;;;;;;;7.68;4.75;;;13.50;99.90;;;;;;4972837;28;20117;-74
2021/05/13 00:37:40;;;;;;;8.93;5.13;;;13.90;99.90;;;;;;4967280;28;20030;-78
2021/05/13 00:40:08;;;;;;;6.30;4.10;;;14.00;99.90;;;;;;4972330;28;20023;-80
2021/05/13 00:42:34;;;;;;;7.57;4.32;;;14.20;99.90;;;;;;4971798;28;20377;-79
2021/05/13 00:45:00;;;;;;;8.57;4.53;;;14.20;99.90;;;;;;4954688;28;20470;-78
2021/05/13 00:47:28;;;;;;;8.95;4.72;;;14.00;99.90;;;;;;4971697;28;20022;-78
2021/05/13 00:49:54;;;;;;;9.77;4.60;;;14.00;99.90;;;;;;4972305;28;20094;-75
2021/05/13 00:52:22;;;;;;;7.63;4.85;;;13.70;99.90;;;;;;4954422;28;20437;-79
2021/05/13 00:54:48;;;;;;;10.10;5.30;;;14.10;99.90;;;;;;4972100;28;20029;-75
2021/05/13 00:57:14;;;;;;;9.35;4.88;;;14.00;99.90;;;;;;4972664;28;20023;-73
2021/05/13 00:59:44;;;;;;;6.75;4.70;;;14.30;99.90;;;;;;4972301;28;20029;-74
2021/05/13 01:02:10;;;;;;;7.85;4.70;;;14.50;99.90;;;;;;4972226;28;20046;-73
2021/05/13 01:04:36;;;;;;;11.38;5.15;;;14.20;99.90;;;;;;4952691;28;20038;-76
2021/05/13 01:07:03;;;;;;;9.43;4.95;;;14.20;99.90;;;;;;4962906;28;20122;-78
2021/05/13 01:09:31;;;;;;;9.68;5.15;;;14.30;99.90;;;;;;4952236;28;20027;-78
2021/05/13 01:12:08;;;;;;;8.15;5.35;;;14.40;99.90;;;;;;4953590;29;20023;-74
2021/05/13 01:14:45;;;;;;;8.45;4.97;;;14.30;99.90;;;;;;4953482;29;20019;-75
2021/05/13 01:17:36;;;;;;;9.25;4.32;;;14.30;99.90;;;;;;4953375;29;20079;-74
2021/05/13 01:20:02;;;;;;;10.00;4.88;;;14.40;99.90;;;;;;4952398;28;20119;-75
2021/05/13 01:22:28;;;;;;;12.27;5.13;;;14.40;99.90;;;;;;4963246;28;20058;-75
2021/05/13 01:24:54;;;;;;;8.68;4.80;;;14.50;99.90;;;;;;4968193;28;20415;-75
2021/05/13 01:27:20;;;;;;;8.38;4.90;;;14.50;99.90;;;;;;4936593;29;20483;-76
2021/05/13 01:29:49;;;;;;;9.88;5.00;;;14.20;99.90;;;;;;4953252;29;20046;-75
2021/05/13 01:32:16;;;;;;;8.32;4.78;;;13.90;99.90;;;;;;4953069;29;20055;-75
2021/05/13 01:34:43;;;;;;;8.52;4.32;;;13.60;99.90;;;;;;4953729;29;20043;-75
2021/05/13 01:37:09;;;;;;;6.88;4.00;;;13.30;99.90;;;;;;4936222;29;20023;-75
2021/05/13 01:39:35;;;;;;;7.07;3.65;;;12.90;99.90;;;;;;4953313;29;20027;-75
2021/05/13 01:42:00;;;;;;;7.78;4.10;;;12.40;99.90;;;;;;4953233;29;20016;-74
2021/05/13 01:44:26;;;;;;;10.05;4.18;;;12.50;99.90;;;;;;4953152;29;20035;-75
2021/05/13 01:46:52;;;;;;;9.15;4.18;;;12.80;99.90;;;;;;4953364;29;20027;-75
2021/05/13 01:49:21;;;;;;;8.55;4.15;;;13.30;99.90;;;;;;4952957;29;20066;-76
2021/05/13 01:51:47;;;;;;;10.20;4.35;;;13.50;99.90;;;;;;4936263;29;20067;-75
2021/05/13 01:54:14;;;;;;;7.22;4.10;;;12.70;99.90;;;;;;4952905;28;20032;-72
2021/05/13 01:56:40;;;;;;;7.63;4.03;;;12.40;99.90;;;;;;4953179;29;20382;-76
2021/05/13 01:59:06;;;;;;;8.02;4.00;;;12.80;99.90;;;;;;4935851;29;20031;-75
2021/05/13 02:01:32;;;;;;;6.72;4.22;;;13.30;99.90;;;;;;4952917;29;20027;-79
2021/05/13 02:03:57;;;;;;;6.55;4.10;;;13.60;99.90;;;;;;4953038;29;20111;-78
2021/05/13 02:06:23;;;;;;;7.22;4.25;;;13.70;99.90;;;;;;4936004;29;20118;-75
2021/05/13 02:08:49;;;;;;;7.22;4.72;;;13.80;99.90;;;;;;4952936;29;20111;-75
2021/05/13 02:11:15;;;;;;;9.48;3.90;;;13.60;99.90;;;;;;4952980;29;20367;-74
2021/05/13 02:13:40;;;;;;;6.55;4.60;;;13.60;99.90;;;;;;4952807;29;20073;-76
2021/05/13 02:16:07;;;;;;;8.60;4.95;;;13.60;99.90;;;;;;4953003;29;20031;-78
2021/05/13 02:18:32;;;;;;;8.55;5.22;;;13.50;99.90;;;;;;4952642;29;20035;-76
2021/05/13 02:20:58;;;;;;;8.55;5.28;;;12.90;99.90;;;;;;4952808;29;20028;-76
2021/05/13 02:23:24;;;;;;;10.88;5.30;;;12.80;99.90;;;;;;4952961;29;20038;-75
2021/05/13 02:25:50;;;;;;;8.65;4.80;;;13.10;99.90;;;;;;4953242;29;20042;-76
2021/05/13 02:28:17;;;;;;;6.82;4.88;;;13.00;99.90;;;;;;4952565;29;20059;-77
2021/05/13 02:30:42;;;;;;;11.32;5.05;;;12.70;99.90;;;;;;4953002;28;20047;-77
2021/05/13 02:33:09;;;;;;;7.13;4.65;;;12.30;99.90;;;;;;4956172;29;20082;-76
2021/05/13 02:35:35;;;;;;;5.53;3.88;;;12.00;99.90;;;;;;4956403;29;20378;-77
2021/05/13 02:38:01;;;;;;;6.80;4.40;;;11.90;99.90;;;;;;4956467;29;20031;-76
2021/05/13 02:40:27;;;;;;;7.07;4.68;;;11.80;99.90;;;;;;4956015;29;20027;-77
2021/05/13 02:42:53;;;;;;;10.38;4.57;;;11.80;99.90;;;;;;4956157;29;20053;-77
2021/05/13 02:45:19;;;;;;;8.45;4.57;;;11.80;99.90;;;;;;4956305;29;20031;-75
2021/05/13 02:47:45;;;;;;;8.23;4.60;;;12.00;99.90;;;;;;4956525;29;20402;-75
2021/05/13 02:50:13;;;;;;;7.00;4.53;;;12.20;99.90;;;;;;4956237;29;20035;-77
2021/05/13 02:52:39;;;;;;;6.35;3.97;;;12.30;99.90;;;;;;4956020;29;20035;-77
2021/05/13 02:55:07;;;;;;;6.38;4.38;;;11.90;99.90;;;;;;4955968;29;20391;-75
2021/05/13 02:57:33;;;;;;;7.30;4.90;;;12.10;99.90;;;;;;4955991;29;20023;-76
2021/05/13 03:02:26;;;;;;;6.15;4.07;;;12.70;99.90;;;;;;4956550;29;20027;-77
2021/05/13 03:04:51;;;;;;;7.47;4.50;;;12.90;99.90;;;;;;4956176;29;20034;-77
2021/05/13 03:07:17;;;;;;;5.93;4.20;;;13.00;99.90;;;;;;4956122;29;20439;-76
2021/05/13 03:09:48;;;;;;;8.05;4.20;;;13.00;99.90;;;;;;4955936;29;20026;-75
2021/05/13 03:12:14;;;;;;;7.15;3.58;;;13.00;99.90;;;;;;4955708;29;20027;-76
2021/05/13 03:14:40;;;;;;;6.45;3.88;;;13.10;99.90;;;;;;4955735;29;20031;-77
2021/05/13 03:17:06;;;;;;;7.32;4.03;;;13.10;99.90;;;;;;4955823;29;20019;-77
2021/05/13 03:19:42;;;;;;;7.05;4.05;;;13.20;99.90;;;;;;4955460;29;20486;-75
2021/05/13 03:22:12;;;;;;;9.57;4.03;;;13.20;99.90;;;;;;4955413;29;20053;-74
2021/05/13 03:27:26;;;;;;;7.45;4.72;;;13.10;99.90;;;;;;4936209;29;20383;-76
2021/05/13 03:29:56;;;;;;;9.50;5.10;;;12.50;99.90;;;;;;4919033;29;20055;-77
2021/05/13 03:32:25;;;;;;;7.65;4.65;;;11.90;99.90;;;;;;4935965;29;20039;-76
2021/05/13 03:34:51;;;;;;;9.18;5.07;;;11.40;99.90;;;;;;4936056;29;20035;-75
2021/05/13 03:37:19;;;;;;;8.10;4.53;;;11.40;99.90;;;;;;4936557;29;20424;-77
2021/05/13 03:39:45;;;;;;;8.30;4.85;;;11.20;99.90;;;;;;4935641;29;20104;-76
2021/05/13 03:42:10;;;;;;;8.15;5.03;;;11.20;99.90;;;;;;4936161;29;20369;-77
2021/05/13 03:44:36;;;;;;;6.78;4.57;;;11.80;99.90;;;;;;4935967;29;20051;-77
2021/05/13 03:47:02;;;;;;;8.13;4.47;;;11.50;99.90;;;;;;4935922;29;20034;-77
2021/05/13 03:49:28;;;;;;;6.18;4.78;;;12.00;99.90;;;;;;4936146;29;20066;-76
2021/05/13 03:51:53;;;;;;;9.20;4.40;;;12.10;99.90;;;;;;4936223;29;20038;-75
2021/05/13 03:54:19;;;;;;;7.13;4.30;;;12.00;99.90;;;;;;4935246;29;20488;-77
2021/05/13 03:56:45;;;;;;;9.45;4.43;;;12.30;99.90;;;;;;4935990;29;20027;-79
2021/05/13 03:59:14;;;;;;;8.30;4.53;;;12.70;99.90;;;;;;4918752;29;20038;-77
2021/05/13 04:02:03;;;;;;;5.33;4.13;;;12.90;99.90;;;;;;4935698;29;20022;-77
2021/05/13 04:04:29;;;;;;;6.43;4.32;;;12.90;99.90;;;;;;4918763;29;20390;-76
2021/05/13 04:06:55;;;;;;;8.38;4.60;;;13.10;99.90;;;;;;4918457;29;20377;-76
2021/05/13 04:09:21;;;;;;;9.73;4.35;;;13.30;99.90;;;;;;4935515;29;20059;-74
2021/05/13 04:11:47;;;;;;;6.85;4.00;;;13.30;99.90;;;;;;4935692;29;20099;-76
2021/05/13 04:14:12;;;;;;;6.88;4.30;;;13.00;99.90;;;;;;4934965;29;20094;-75
2021/05/13 04:16:41;;;;;;;6.10;3.92;;;13.20;99.90;;;;;;4935431;29;20027;-76
2021/05/13 04:19:08;;;;;;;9.90;4.53;;;13.40;99.90;;;;;;4935657;29;20028;-74
2021/05/13 04:21:34;;;;;;;5.63;4.10;;;13.50;99.90;;;;;;4935512;29;20036;-77
2021/05/13 04:24:00;;;;;;;7.38;4.32;;;13.60;99.90;;;;;;4935189;29;20380;-78
2021/05/13 04:26:26;;;;;;;11.43;4.47;;;13.70;99.90;;;;;;4947081;29;20027;-82
2021/05/13 04:28:52;;;;;;;6.78;4.35;;;13.70;99.90;;;;;;4954221;29;20102;-83
2021/05/13 04:31:18;;;;;;;8.73;4.50;;;13.80;99.90;;;;;;4937059;29;20059;-81
2021/05/13 04:33:44;;;;;;;10.82;4.38;;;13.80;99.90;;;;;;4954071;29;20115;-81
2021/05/13 04:36:10;;;;;;;5.40;3.60;;;13.70;99.90;;;;;;4937109;29;20027;-78
2021/05/13 04:38:36;;;;;;;7.60;4.10;;;13.80;99.90;;;;;;4953825;29;20047;-80
2021/05/13 04:41:02;;;;;;;6.40;4.15;;;13.90;99.90;;;;;;4954006;29;20015;-80
2021/05/13 04:43:35;;;;;;;6.15;3.70;;;14.00;99.90;;;;;;4954179;29;20065;-79
2021/05/13 04:46:02;;;;;;;10.65;4.00;;;14.10;99.90;;;;;;4953763;29;20453;-78
2021/05/13 04:48:39;;;;;;;6.60;3.70;;;14.10;99.90;;;;;;4954313;29;20024;-79
2021/05/13 04:51:05;;;;;;;8.32;3.80;;;14.20;99.90;;;;;;4954235;29;20035;-80
2021/05/13 04:53:31;;;;;;;6.32;3.58;;;14.20;99.90;;;;;;4953422;28;20090;-79
2021/05/13 04:55:57;;;;;;;7.20;3.42;;;14.30;99.90;;;;;;4953820;28;20082;-78
2021/05/13 04:58:22;;;;;;;6.45;3.30;;;14.00;99.90;;;;;;4953890;29;20027;-77
2021/05/13 05:00:49;;;;;;;5.95;3.47;;;14.20;99.90;;;;;;4953707;29;20082;-81
2021/05/13 05:03:15;;;;;;;7.93;3.50;;;14.40;99.90;;;;;;4953946;29;20102;-81
2021/05/13 05:05:41;;;;;;;9.80;4.13;;;14.60;99.90;;;;;;4953608;29;20039;-81
2021/05/13 05:08:07;;;;;;;9.35;4.10;;;13.90;99.90;;;;;;4953688;29;20024;-80
2021/05/13 05:10:32;;;;;;;9.50;3.83;;;13.90;99.90;;;;;;4953778;29;20063;-77
2021/05/13 05:12:58;;;;;;;8.48;3.58;;;14.20;99.90;;;;;;4953607;29;20086;-74
2021/05/13 05:15:24;;;;;;;6.40;3.47;;;14.10;99.90;;;;;;4953368;29;20028;-73
2021/05/13 05:17:50;;;;;;;9.05;4.55;;;14.30;99.90;;;;;;4953749;29;20383;-76
2021/05/13 05:20:16;;;;;;;7.65;3.25;;;14.60;99.90;;;;;;4953616;29;20123;-74
2021/05/13 05:22:42;;;;;;;13.68;3.85;;;14.80;99.90;;;;;;4953614;29;20094;-75
2021/05/13 05:25:08;;;;;;;9.50;4.50;;;14.80;99.90;;;;;;4953402;29;20066;-75
2021/05/13 05:27:34;;;;;;;13.05;5.30;;;15.00;99.90;;;;;;4953823;29;20690;-76
2021/05/13 05:30:00;;;;;;;18.67;12.55;;;15.30;99.90;;;;;;4953195;29;20372;-77
2021/05/13 05:32:26;;;;;;;132.00;71.40;;;15.50;99.90;;;;;;4936181;29;20486;-77
2021/05/13 05:34:51;;;;;;;132.82;76.53;;;15.50;99.90;;;;;;4953261;29;20509;-77
2021/05/13 05:37:17;;;;;;;382.25;228.27;;;15.60;99.90;;;;;;4936286;29;20087;-74
2021/05/13 05:39:43;;;;;;;21.30;12.40;;;15.70;99.90;;;;;;4953298;29;20028;-75
2021/05/13 05:42:09;;;;;;;17.92;7.10;;;15.60;99.90;;;;;;4953203;29;20619;-76
2021/05/13 05:44:34;;;;;;;13.40;6.72;;;15.50;99.90;;;;;;4936015;29;20055;-74
2021/05/13 05:47:00;;;;;;;12.60;6.85;;;15.40;99.90;;;;;;4958220;28;20479;-74
2021/05/13 05:49:26;;;;;;;11.27;5.65;;;15.50;99.90;;;;;;4969147;28;20034;-75
2021/05/13 05:51:52;;;;;;;13.00;4.80;;;15.40;99.90;;;;;;4972131;28;20026;-76
2021/05/13 05:54:17;;;;;;;12.82;5.30;;;15.40;99.90;;;;;;4971956;28;20084;-78
2021/05/13 05:56:43;;;;;;;14.73;7.40;;;15.50;99.90;;;;;;4949345;28;20066;-75
2021/05/13 05:59:09;;;;;;;11.68;6.70;;;15.60;99.90;;;;;;4954800;28;20035;-76
2021/05/13 06:01:37;;;;;;;12.15;6.80;;;15.40;99.90;;;;;;4972188;28;20023;-73
2021/05/13 06:04:04;;;;;;;13.25;7.95;;;15.40;99.90;;;;;;4971625;28;20026;-73
2021/05/13 06:06:30;;;;;;;10.60;5.85;;;15.60;99.90;;;;;;4970874;28;20596;-74
2021/05/13 06:08:56;;;;;;;13.70;7.22;;;15.70;99.90;;;;;;4975003;28;20498;-75
2021/05/13 06:11:21;;;;;;;12.90;7.28;;;15.30;99.90;;;;;;4975994;28;20383;-74
2021/05/13 06:13:47;;;;;;;10.57;6.38;;;15.20;99.90;;;;;;4975718;28;20058;-78
2021/05/13 06:16:13;;;;;;;14.35;7.82;;;15.20;99.90;;;;;;4958864;28;20475;-75
2021/05/13 06:18:49;;;;;;;14.45;7.25;;;15.40;99.90;;;;;;4975952;28;20043;-75
2021/05/13 06:21:15;;;;;;;15.60;7.25;;;15.70;99.90;;;;;;4958466;28;20488;-78
2021/05/13 06:23:55;;;;;;;14.50;7.63;;;15.70;99.90;;;;;;4976027;28;20504;-77
2021/05/13 06:26:29;;;;;;;12.63;7.13;;;15.50;99.90;;;;;;4950166;29;20435;-78
2021/05/13 06:28:55;;;;;;;9.65;6.35;;;15.80;99.90;;;;;;4956385;29;20054;-75
2021/05/13 06:31:22;;;;;;;12.80;6.60;;;16.00;99.90;;;;;;4956320;29;20015;-77
2021/05/13 06:33:48;;;;;;;15.10;6.65;;;16.00;99.90;;;;;;4939143;29;20094;-74
2021/05/13 06:36:14;;;;;;;13.07;6.63;;;15.90;99.90;;;;;;4956352;29;20030;-75
2021/05/13 06:38:40;;;;;;;14.35;5.97;;;16.10;99.90;;;;;;4956301;29;20031;-77
2021/05/13 06:41:07;;;;;;;14.90;6.57;;;16.30;99.90;;;;;;4956293;29;20442;-82
2021/05/13 06:43:34;;;;;;;17.08;6.82;;;16.50;99.90;;;;;;4956349;29;20035;-77
2021/05/13 06:46:00;;;;;;;14.55;7.50;;;16.60;99.90;;;;;;4938371;29;20031;-77
2021/05/13 06:48:26;;;;;;;13.57;7.28;;;16.70;99.90;;;;;;4939025;29;20035;-76
2021/05/13 06:50:51;;;;;;;14.30;7.07;;;16.40;99.90;;;;;;4956253;29;20031;-76
2021/05/13 06:53:17;;;;;;;17.85;8.38;;;16.60;99.90;;;;;;4955635;29;20058;-77
2021/05/13 06:55:43;;;;;;;15.20;7.00;;;16.80;99.90;;;;;;4956254;28;20098;-76
2021/05/13 06:58:09;;;;;;;16.67;8.35;;;17.00;99.90;;;;;;4938529;29;20035;-75
2021/05/13 07:00:35;;;;;;;16.80;7.60;;;17.00;99.90;;;;;;4956389;29;20034;-74
2021/05/13 07:03:00;;;;;;;17.88;7.65;;;16.90;99.90;;;;;;4955667;29;20479;-76
2021/05/13 07:05:27;;;;;;;13.02;6.82;;;17.00;99.90;;;;;;4938977;29;20487;-83
2021/05/13 07:07:53;;;;;;;18.52;7.88;;;17.10;99.90;;;;;;4955910;29;20031;-77
2021/05/13 07:10:19;;;;;;;19.52;8.60;;;17.30;99.90;;;;;;4955766;29;20034;-74
2021/05/13 07:12:45;;;;;;;17.80;9.95;;;17.30;99.90;;;;;;4938362;29;20509;-76
2021/05/13 07:15:11;;;;;;;21.85;9.52;;;17.20;99.90;;;;;;4955827;29;20030;-76
2021/05/13 07:17:36;;;;;;;21.00;9.05;;;17.30;99.90;;;;;;4939481;29;20028;-76
2021/05/13 07:20:03;;;;;;;20.38;9.40;;;17.40;99.90;;;;;;4955445;29;20035;-78
2021/05/13 07:22:29;;;;;;;22.58;8.70;;;17.10;99.90;;;;;;4955434;29;20035;-74
2021/05/13 07:24:55;;;;;;;15.75;8.18;;;17.10;99.90;;;;;;4955354;29;20097;-75
2021/05/13 07:27:21;;;;;;;13.77;6.57;;;17.20;99.90;;;;;;4955017;29;20379;-75
2021/05/13 07:29:47;;;;;;;14.32;6.53;;;17.40;99.90;;;;;;4955219;29;20055;-75
2021/05/13 07:32:13;;;;;;;11.38;5.78;;;17.50;99.90;;;;;;4954697;29;20023;-74
2021/05/13 07:34:39;;;;;;;13.32;6.28;;;17.70;99.90;;;;;;4955717;29;20038;-74
2021/05/13 07:37:05;;;;;;;10.23;6.00;;;17.80;99.90;;;;;;4955192;29;20114;-74
2021/05/13 07:39:31;;;;;;;15.93;7.07;;;18.00;99.90;;;;;;4955245;29;20038;-74
2021/05/13 07:41:57;;;;;;;11.57;5.75;;;18.20;99.90;;;;;;4954936;29;20027;-76
2021/05/13 07:44:22;;;;;;;14.20;6.63;;;18.40;99.90;;;;;;4938025;29;20378;-75
2021/05/13 07:46:49;;;;;;;13.43;6.75;;;18.50;99.90;;;;;;4937561;29;20038;-76
2021/05/13 07:49:15;;;;;;;10.57;6.30;;;18.10;99.90;;;;;;4955286;29;20054;-76
2021/05/13 07:51:43;;;;;;;13.98;6.53;;;18.10;99.90;;;;;;4955195;29;20097;-74
2021/05/13 07:54:09;;;;;;;12.88;6.07;;;18.20;99.90;;;;;;4954934;28;20110;-76
2021/05/13 07:56:35;;;;;;;9.57;5.63;;;18.40;99.90;;;;;;4954582;29;20419;-76
2021/05/13 07:59:01;;;;;;;10.23;4.90;;;18.50;99.90;;;;;;4955178;29;20027;-77
2021/05/13 08:01:26;;;;;;;7.50;4.22;;;18.90;99.90;;;;;;4954780;29;20383;-77
2021/05/13 08:03:52;;;;;;;12.65;5.28;;;18.90;99.90;;;;;;4954332;29;20383;-78
2021/05/13 08:06:18;;;;;;;9.68;3.97;;;19.20;99.20;;;;;;4954857;29;20031;-77
2021/05/13 08:08:44;;;;;;;10.27;3.65;;;19.20;97.70;;;;;;4954644;29;20059;-77
2021/05/13 08:11:10;;;;;;;11.52;4.40;;;19.20;97.40;;;;;;4954433;29;20038;-79
2021/05/13 08:13:38;;;;;;;8.35;4.07;;;19.30;98.80;;;;;;4954380;29;20072;-74
2021/05/13 08:16:04;;;;;;;8.15;4.03;;;19.40;98.40;;;;;;4954589;29;20023;-73
2021/05/13 08:18:30;;;;;;;8.13;4.07;;;19.40;97.60;;;;;;4954515;29;20041;-78
2021/05/13 08:21:02;;;;;;;7.03;4.20;;;19.30;97.90;;;;;;4954419;29;20027;-76
2021/05/13 08:23:28;;;;;;;14.25;4.40;;;19.30;97.40;;;;;;4954220;29;20158;-79
2021/05/13 08:25:54;;;;;;;7.47;3.65;;;19.40;97.20;;;;;;4953990;29;20094;-76
2021/05/13 08:28:19;;;;;;;7.55;3.92;;;19.60;97.00;;;;;;4953777;28;20439;-75
2021/05/13 08:30:45;;;;;;;7.05;3.42;;;19.70;96.40;;;;;;4936526;29;20539;-77
2021/05/13 08:33:11;;;;;;;6.97;3.42;;;19.80;95.60;;;;;;4937123;29;20039;-80
2021/05/13 08:35:36;;;;;;;5.80;3.20;;;19.70;95.20;;;;;;4936670;29;20534;-77
2021/05/13 08:38:02;;;;;;;5.75;2.72;;;19.70;94.10;;;;;;4936889;29;20027;-76
2021/05/13 08:40:28;;;;;;;6.72;2.90;;;19.70;93.50;;;;;;4936979;29;20525;-76
2021/05/13 08:42:54;;;;;;;6.82;3.60;;;19.80;92.70;;;;;;4953649;29;20379;-80
2021/05/13 08:45:19;;;;;;;6.35;2.80;;;19.90;92.50;;;;;;4953843;29;20110;-75
2021/05/13 08:47:45;;;;;;;5.32;2.67;;;20.00;91.10;;;;;;4954307;29;20106;-75
2021/05/13 08:50:18;;;;;;;5.13;2.75;;;20.40;91.20;;;;;;4954262;29;20039;-78
2021/05/13 08:52:44;;;;;;;6.85;2.80;;;20.90;91.10;;;;;;4954013;29;20031;-79
2021/05/13 08:55:11;;;;;;;5.82;2.70;;;21.00;89.90;;;;;;4953785;28;20046;-78
2021/05/13 08:57:37;;;;;;;8.40;3.22;;;20.80;85.00;;;;;;4953763;29;20034;-80
2021/05/13 09:00:06;;;;;;;5.93;2.90;;;21.00;86.50;;;;;;4953609;29;20106;-77
2021/05/13 09:02:32;;;;;;;6.97;3.05;;;21.10;88.00;;;;;;4936421;29;20133;-79
2021/05/13 09:04:59;;;;;;;6.43;2.78;;;21.00;86.30;;;;;;4953824;29;20484;-75
2021/05/13 09:07:29;;;;;;;5.90;2.78;;;21.00;83.70;;;;;;4953555;29;20051;-78
2021/05/13 09:10:08;;;;;;;8.73;2.75;;;21.20;81.50;;;;;;4953929;29;20054;-77
2021/05/13 09:12:45;;;;;;;5.68;2.35;;;21.20;83.10;;;;;;4953614;29;20127;-78
2021/05/13 09:15:23;;;;;;;6.72;2.70;;;21.20;81.40;;;;;;4953355;29;20023;-81
2021/05/13 09:17:51;;;;;;;39.05;27.35;;;21.20;80.00;;;;;;4936438;29;20019;-81
2021/05/13 09:20:29;;;;;;;25.48;16.58;;;21.30;84.50;;;;;;4953220;29;20023;-78
2021/05/13 09:23:16;;;;;;;14.32;8.60;;;21.30;82.70;;;;;;4953107;29;20023;-79
2021/05/13 09:25:43;;;;;;;4.78;2.25;;;20.90;77.40;;;;;;4953296;29;20030;-78
2021/05/13 09:28:09;;;;;;;3.83;1.80;;;20.70;78.70;;;;;;4953049;29;20490;-79
2021/05/13 09:30:35;;;;;;;3.88;2.20;;;20.70;78.40;;;;;;4936002;29;20055;-77
2021/05/13 09:33:05;;;;;;;5.75;2.28;;;20.80;76.70;;;;;;4957993;28;20034;-79
2021/05/13 09:35:33;;;;;;;4.05;1.98;;;21.00;75.20;;;;;;4954859;28;20039;-74
2021/05/13 09:38:01;;;;;;;5.38;2.00;;;21.10;73.00;;;;;;4972872;28;20109;-75
2021/05/13 09:40:43;;;;;;;3.70;1.77;;;21.20;74.10;;;;;;4954679;28;20030;-75
2021/05/13 09:43:16;;;;;;;5.20;2.00;;;21.50;73.10;;;;;;4959310;28;20070;-76
2021/05/13 09:45:52;;;;;;;7.13;2.83;;;21.90;72.70;;;;;;4952742;29;20031;-75
2021/05/13 09:48:38;;;;;;;5.97;2.90;;;22.10;71.60;;;;;;4953183;29;20098;-76
2021/05/13 09:51:24;;;;;;;36.92;24.63;;;22.20;68.00;;;;;;4952752;29;20070;-76
2021/05/13 09:54:03;;;;;;;30.05;20.58;;;22.30;71.20;;;;;;4952958;28;20043;-76
2021/05/13 09:56:30;;;;;;;13.40;8.93;;;22.40;72.10;;;;;;4952737;29;20030;-79
2021/05/13 09:58:56;;;;;;;8.02;4.00;;;22.20;72.40;;;;;;4934977;29;20095;-76
2021/05/13 10:01:22;;;;;;;8.63;2.53;;;22.20;71.20;;;;;;4953270;29;20478;-78
2021/05/13 10:03:49;;;;;;;4.20;1.98;;;22.20;70.70;;;;;;4952939;29;20035;-76
2021/05/13 10:06:15;;;;;;;3.95;1.83;;;22.10;70.70;;;;;;4952657;29;20391;-78
2021/05/13 10:08:43;;;;;;;6.55;2.13;;;21.90;71.30;;;;;;4952854;29;20451;-78
2021/05/13 10:11:15;;;;;;;4.38;1.88;;;22.00;72.60;;;;;;4952072;29;20027;-83
2021/05/13 10:13:41;;;;;;;5.50;2.88;;;21.90;72.00;;;;;;4952396;29;20035;-74
2021/05/13 10:16:07;;;;;;;5.47;2.05;;;21.90;72.70;;;;;;4952315;29;20093;-76
2021/05/13 10:18:40;;;;;;;5.90;2.20;;;21.90;72.00;;;;;;4964910;28;20062;-74
2021/05/13 10:21:16;;;;;;;4.18;1.90;;;21.70;71.40;;;;;;4967021;28;20038;-76
2021/05/13 10:23:42;;;;;;;4.45;2.42;;;21.60;72.80;;;;;;4966625;28;20038;-80
2021/05/13 10:26:48;;;;;;;4.88;2.20;;;21.70;73.20;;;;;;4969764;28;20022;-75
2021/05/13 10:29:21;;;;;;;22.40;15.52;;;21.60;73.70;;;;;;4949697;28;20083;-81
2021/05/13 10:32:00;;;;;;;27.80;19.50;;;21.70;78.00;;;;;;4971034;28;20031;-81
2021/05/13 10:34:40;;;;;;;21.80;13.85;;;21.80;78.50;;;;;;4963826;28;20374;-78
2021/05/13 10:37:16;;;;;;;7.43;3.95;;;21.80;76.40;;;;;;4969524;28;20031;-77
2021/05/13 10:40:27;;;;;;;7.82;3.05;;;21.60;76.00;;;;;;4966662;28;20835;-76
2021/05/13 10:43:05;;;;;;;6.18;2.80;;;21.50;76.70;;;;;;4970619;28;20058;-79
2021/05/13 10:45:35;;;;;;;7.40;2.35;;;21.50;76.90;;;;;;4970434;28;20026;-77
2021/05/13 10:48:20;;;;;;;4.05;2.40;;;21.30;76.20;;;;;;4951435;28;20490;-81
2021/05/13 10:50:54;;;;;;;5.43;2.42;;;21.20;75.70;;;;;;4963530;28;20038;-80
2021/05/13 10:53:35;;;;;;;8.18;2.33;;;21.10;75.70;;;;;;4970675;28;20101;-83
2021/05/13 10:56:23;;;;;;;7.38;2.30;;;21.10;76.20;;;;;;4953418;28;20069;-85
2021/05/13 10:59:10;;;;;;;5.07;2.10;;;21.10;77.30;;;;;;4972410;28;20356;-77
2021/05/13 11:01:47;;;;;;;6.60;3.95;;;21.20;79.60;;;;;;4971431;28;20036;-78
2021/05/13 11:04:25;;;;;;;9.02;3.22;;;21.20;78.60;;;;;;4975115;28;20094;-81
2021/05/13 11:06:51;;;;;;;7.68;3.33;;;21.00;72.60;;;;;;4974154;28;20022;-77
2021/05/13 11:09:39;;;;;;;7.72;3.38;;;20.90;71.20;;;;;;4974190;28;20038;-77
2021/05/13 11:12:22;;;;;;;8.07;3.22;;;20.80;70.00;;;;;;4954362;28;20387;-78
2021/05/13 11:18:01;;;;;;;28.42;17.38;;;21.00;71.80;;;;;;4975077;28;20026;-80
2021/05/13 11:20:28;;;;;;;12.30;6.97;;;21.30;74.10;;;;;;4957653;28;20404;-82
2021/05/13 11:22:56;;;;;;;12.98;4.82;;;21.50;70.10;;;;;;4973569;28;20114;-78
2021/05/13 11:25:33;;;;;;;10.10;3.40;;;21.30;71.10;;;;;;4973383;28;20027;-77
2021/05/13 11:27:59;;;;;;;8.23;2.78;;;21.20;69.60;;;;;;4949172;29;20036;-82
2021/05/13 11:30:25;;;;;;;7.68;3.35;;;21.00;70.50;;;;;;4938378;29;20126;-81
2021/05/13 11:32:51;;;;;;;9.48;2.88;;;20.90;71.50;;;;;;4955037;29;20086;-80
2021/05/13 11:35:22;;;;;;;5.35;2.30;;;20.90;71.40;;;;;;4958161;28;20031;-79
2021/05/13 11:37:51;;;;;;;8.20;2.70;;;20.90;69.70;;;;;;4954941;28;20026;-79
2021/05/13 11:40:28;;;;;;;9.48;3.10;;;20.80;68.70;;;;;;4971108;28;20027;-78
2021/05/13 11:43:19;;;;;;;5.25;2.83;;;21.30;70.20;;;;;;4972857;28;20049;-81
2021/05/13 11:45:46;;;;;;;6.93;3.30;;;21.80;69.40;;;;;;4964629;28;20085;-78
2021/05/13 11:48:33;;;;;;;11.57;3.00;;;22.10;69.60;;;;;;4939772;28;20027;-76
2021/05/13 11:51:11;;;;;;;9.35;4.13;;;22.30;68.90;;;;;;4971699;28;20110;-79
2021/05/13 11:53:44;;;;;;;16.08;4.00;;;22.60;67.40;;;;;;4973757;28;20042;-78
2021/05/13 11:56:13;;;;;;;8.55;2.95;;;23.00;68.80;;;;;;4974049;28;20408;-76
2021/05/13 11:58:48;;;;;;;6.57;2.80;;;23.20;67.00;;;;;;4974181;28;20031;-82
2021/05/13 12:01:22;;;;;;;5.82;2.40;;;23.40;65.30;;;;;;4974079;28;20054;-77
2021/05/13 12:03:55;;;;;;;5.50;2.40;;;23.60;64.40;;;;;;4974073;28;20034;-78
2021/05/13 12:06:22;;;;;;;9.93;3.60;;;23.10;63.60;;;;;;4973885;28;20034;-82
2021/05/13 12:08:48;;;;;;;7.00;2.40;;;23.50;64.50;;;;;;4973938;28;20030;-79
2021/05/13 12:11:27;;;;;;;9.10;4.15;;;24.20;65.60;;;;;;4973791;28;20027;-78
2021/05/13 12:13:55;;;;;;;17.55;10.35;;;24.10;64.30;;;;;;4974013;28;20031;-79
2021/05/13 12:16:22;;;;;;;22.65;11.80;;;23.30;63.00;;;;;;4973432;28;20019;-78
2021/05/13 12:18:52;;;;;;;9.82;5.25;;;23.10;63.40;;;;;;4974016;28;20590;-78
2021/05/13 12:21:18;;;;;;;8.98;4.07;;;23.10;64.00;;;;;;4972729;28;20023;-76
2021/05/13 12:23:46;;;;;;;7.63;3.40;;;23.90;63.40;;;;;;4954617;28;20486;-80
2021/05/13 12:26:18;;;;;;;7.53;2.65;;;24.20;62.30;;;;;;4955332;28;20386;-79
2021/05/13 12:28:44;;;;;;;7.10;3.33;;;24.30;61.20;;;;;;4959178;28;20240;-76
2021/05/13 12:31:45;;;;;;;6.47;2.13;;;24.80;63.30;;;;;;4972048;28;20049;-75
2021/05/13 12:34:31;;;;;;;9.10;3.35;;;24.90;60.60;;;;;;4952119;28;20518;-75
2021/05/13 12:36:57;;;;;;;5.28;1.83;;;24.60;60.00;;;;;;4971432;28;20077;-76
2021/05/13 12:39:34;;;;;;;4.28;1.92;;;24.50;60.60;;;;;;4972747;28;20034;-78
2021/05/13 12:42:00;;;;;;;4.65;2.30;;;24.10;59.60;;;;;;4966833;28;20031;-77
2021/05/13 12:44:32;;;;;;;6.50;1.55;;;23.90;58.20;;;;;;4972026;28;20030;-78
2021/05/13 12:47:04;;;;;;;6.60;2.17;;;23.50;57.00;;;;;;4972462;28;20031;-80
2021/05/13 12:49:31;;;;;;;3.80;2.00;;;23.40;60.00;;;;;;4955642;28;20038;-78
2021/05/13 12:52:03;;;;;;;7.72;2.05;;;22.40;60.90;;;;;;4972405;28;20062;-80
2021/05/13 12:54:30;;;;;;;7.35;1.92;;;22.60;60.50;;;;;;4955240;28;20089;-76
2021/05/13 12:57:18;;;;;;;4.65;2.55;;;22.80;58.40;;;;;;4972461;28;20050;-79
2021/05/13 12:59:48;;;;;;;4.80;2.10;;;22.80;59.20;;;;;;4968425;28;20023;-79